sensor_id;sensor_type;location;lat;lon;timestamp;P1;durP1;ratioP1;P2;durP2;ratioP2
1404;SDS011;697;51.114;6.542;2024-03-08T00:01:45;20.77;;;17.93;;
1404;SDS011;697;51.114;6.542;2024-03-08T00:04:13;21.70;;;17.13;;
1404;SDS011;697;51.114;6.542;2024-03-08T00:06:41;22.73;;;17.37;;
1404;SDS011;697;51.114;6.542;2024-03-08T00:09:10;27.10;;;18.60;;
1404;SDS011;697;51.114;6.542;2024-03-08T00:11:37;18.37;;;16.40;;
1404;SDS011;697;51.114;6.542;2024-03-08T00:14:04;24.03;;;16.70;;
1404;SDS011;697;51.114;6.542;2024-03-08T00:16:32;22.50;;;17.77;;
1404;SDS011;697;51.114;6.542;2024-03-08T00:19:00;20.43;;;16.90;;
1404;SDS011;697;51.114;6.542;2024-03-08T00:21:28;19.77;;;16.47;;
1404;SDS011;697;51.114;6.542;2024-03-08T00:23:56;22.17;;;16.87;;
1404;SDS011;697;51.114;6.542;2024-03-08T00:26:23;20.53;;;15.03;;
1404;SDS011;697;51.114;6.542;2024-03-08T00:28:50;25.60;;;17.73;;
1404;SDS011;697;51.114;6.542;2024-03-08T00:31:16;25.13;;;18.43;;
1404;SDS011;697;51.114;6.542;2024-03-08T00:33:43;20.70;;;17.63;;
1404;SDS011;697;51.114;6.542;2024-03-08T00:36:10;18.97;;;16.80;;
1404;SDS011;697;51.114;6.542;2024-03-08T00:38:38;23.57;;;17.13;;
1404;SDS011;697;51.114;6.542;2024-03-08T00:41:05;22.23;;;16.70;;
1404;SDS011;697;51.114;6.542;2024-03-08T00:43:32;19.83;;;17.37;;
1404;SDS011;697;51.114;6.542;2024-03-08T00:45:59;22.40;;;17.63;;
1404;SDS011;697;51.114;6.542;2024-03-08T00:48:26;22.43;;;18.07;;
1404;SDS011;697;51.114;6.542;2024-03-08T00:50:53;20.43;;;16.70;;
1404;SDS011;697;51.114;6.542;2024-03-08T00:53:20;23.27;;;18.43;;
1404;SDS011;697;51.114;6.542;2024-03-08T00:55:48;24.20;;;18.53;;
1404;SDS011;697;51.114;6.542;2024-03-08T00:58:14;23.73;;;17.90;;
1404;SDS011;697;51.114;6.542;2024-03-08T01:00:41;20.37;;;17.00;;
1404;SDS011;697;51.114;6.542;2024-03-08T01:03:09;23.00;;;18.67;;
1404;SDS011;697;51.114;6.542;2024-03-08T01:05:36;25.97;;;18.47;;
1404;SDS011;697;51.114;6.542;2024-03-08T01:08:03;20.73;;;18.40;;
1404;SDS011;697;51.114;6.542;2024-03-08T01:10:30;23.57;;;18.40;;
1404;SDS011;697;51.114;6.542;2024-03-08T01:12:58;23.87;;;18.30;;
1404;SDS011;697;51.114;6.542;2024-03-08T01:15:25;20.70;;;18.20;;
1404;SDS011;697;51.114;6.542;2024-03-08T01:17:52;19.87;;;17.43;;
1404;SDS011;697;51.114;6.542;2024-03-08T01:20:19;25.60;;;19.80;;
1404;SDS011;697;51.114;6.542;2024-03-08T01:22:46;24.13;;;18.17;;
1404;SDS011;697;51.114;6.542;2024-03-08T01:25:13;20.47;;;17.03;;
1404;SDS011;697;51.114;6.542;2024-03-08T01:27:39;27.43;;;21.27;;
1404;SDS011;697;51.114;6.542;2024-03-08T01:30:08;26.63;;;19.43;;
1404;SDS011;697;51.114;6.542;2024-03-08T01:32:35;25.53;;;18.57;;
1404;SDS011;697;51.114;6.542;2024-03-08T01:35:03;23.13;;;19.13;;
1404;SDS011;697;51.114;6.542;2024-03-08T01:37:31;28.53;;;20.60;;
1404;SDS011;697;51.114;6.542;2024-03-08T01:39:57;25.40;;;19.00;;
1404;SDS011;697;51.114;6.542;2024-03-08T01:42:24;22.50;;;18.40;;
1404;SDS011;697;51.114;6.542;2024-03-08T01:44:51;22.87;;;18.47;;
1404;SDS011;697;51.114;6.542;2024-03-08T01:47:19;25.33;;;18.20;;
1404;SDS011;697;51.114;6.542;2024-03-08T01:49:48;27.63;;;18.67;;
1404;SDS011;697;51.114;6.542;2024-03-08T01:52:15;22.30;;;18.70;;
1404;SDS011;697;51.114;6.542;2024-03-08T01:54:44;20.53;;;17.27;;
1404;SDS011;697;51.114;6.542;2024-03-08T01:57:11;23.83;;;18.73;;
1404;SDS011;697;51.114;6.542;2024-03-08T01:59:39;22.83;;;18.30;;
1404;SDS011;697;51.114;6.542;2024-03-08T02:02:06;24.20;;;19.10;;
1404;SDS011;697;51.114;6.542;2024-03-08T02:04:36;24.23;;;17.67;;
1404;SDS011;697;51.114;6.542;2024-03-08T02:07:04;23.50;;;19.10;;
1404;SDS011;697;51.114;6.542;2024-03-08T02:09:31;22.23;;;17.70;;
1404;SDS011;697;51.114;6.542;2024-03-08T02:11:57;22.67;;;18.70;;
1404;SDS011;697;51.114;6.542;2024-03-08T02:14:24;21.03;;;17.53;;
1404;SDS011;697;51.114;6.542;2024-03-08T02:16:51;25.53;;;20.20;;
1404;SDS011;697;51.114;6.542;2024-03-08T02:19:19;26.37;;;18.23;;
1404;SDS011;697;51.114;6.542;2024-03-08T02:21:47;23.30;;;18.33;;
1404;SDS011;697;51.114;6.542;2024-03-08T02:24:14;26.87;;;20.07;;
1404;SDS011;697;51.114;6.542;2024-03-08T02:26:41;25.57;;;19.60;;
1404;SDS011;697;51.114;6.542;2024-03-08T02:29:08;22.10;;;18.03;;
1404;SDS011;697;51.114;6.542;2024-03-08T02:31:35;25.97;;;19.50;;
1404;SDS011;697;51.114;6.542;2024-03-08T02:34:04;28.80;;;20.60;;
1404;SDS011;697;51.114;6.542;2024-03-08T02:36:31;28.70;;;19.97;;
1404;SDS011;697;51.114;6.542;2024-03-08T02:39:01;26.20;;;17.73;;
1404;SDS011;697;51.114;6.542;2024-03-08T02:41:28;27.20;;;19.13;;
1404;SDS011;697;51.114;6.542;2024-03-08T02:43:55;24.23;;;19.40;;
1404;SDS011;697;51.114;6.542;2024-03-08T02:46:21;30.90;;;20.87;;
1404;SDS011;697;51.114;6.542;2024-03-08T02:48:49;25.80;;;19.77;;
1404;SDS011;697;51.114;6.542;2024-03-08T02:51:16;22.53;;;17.90;;
1404;SDS011;697;51.114;6.542;2024-03-08T02:53:43;24.80;;;20.10;;
1404;SDS011;697;51.114;6.542;2024-03-08T02:56:11;21.47;;;17.20;;
1404;SDS011;697;51.114;6.542;2024-03-08T02:58:41;29.67;;;21.50;;
1404;SDS011;697;51.114;6.542;2024-03-08T03:01:08;26.00;;;19.33;;
1404;SDS011;697;51.114;6.542;2024-03-08T03:03:35;24.47;;;19.50;;
1404;SDS011;697;51.114;6.542;2024-03-08T03:06:02;25.93;;;20.10;;
1404;SDS011;697;51.114;6.542;2024-03-08T03:08:29;23.90;;;19.43;;
1404;SDS011;697;51.114;6.542;2024-03-08T03:10:56;24.83;;;19.23;;
1404;SDS011;697;51.114;6.542;2024-03-08T03:13:24;23.70;;;18.47;;
1404;SDS011;697;51.114;6.542;2024-03-08T03:15:51;28.00;;;20.40;;
1404;SDS011;697;51.114;6.542;2024-03-08T03:18:17;28.27;;;21.23;;
1404;SDS011;697;51.114;6.542;2024-03-08T03:20:46;25.97;;;19.87;;
1404;SDS011;697;51.114;6.542;2024-03-08T03:23:14;27.87;;;19.90;;
1404;SDS011;697;51.114;6.542;2024-03-08T03:25:45;24.20;;;19.73;;
1404;SDS011;697;51.114;6.542;2024-03-08T03:28:12;28.50;;;20.10;;
1404;SDS011;697;51.114;6.542;2024-03-08T03:30:44;26.17;;;20.03;;
1404;SDS011;697;51.114;6.542;2024-03-08T03:33:11;29.73;;;19.87;;
1404;SDS011;697;51.114;6.542;2024-03-08T03:35:40;25.50;;;19.00;;
1404;SDS011;697;51.114;6.542;2024-03-08T03:38:08;25.83;;;19.70;;
1404;SDS011;697;51.114;6.542;2024-03-08T03:40:35;25.40;;;18.87;;
1404;SDS011;697;51.114;6.542;2024-03-08T03:43:02;25.70;;;19.20;;
1404;SDS011;697;51.114;6.542;2024-03-08T03:45:30;26.30;;;20.50;;
1404;SDS011;697;51.114;6.542;2024-03-08T03:48:01;26.23;;;19.50;;
1404;SDS011;697;51.114;6.542;2024-03-08T03:50:28;25.27;;;18.37;;
1404;SDS011;697;51.114;6.542;2024-03-08T03:52:55;30.03;;;21.23;;
1404;SDS011;697;51.114;6.542;2024-03-08T03:55:22;26.47;;;19.97;;
1404;SDS011;697;51.114;6.542;2024-03-08T03:57:49;34.00;;;21.03;;
1404;SDS011;697;51.114;6.542;2024-03-08T04:00:15;27.70;;;19.80;;
1404;SDS011;697;51.114;6.542;2024-03-08T04:02:43;26.90;;;18.40;;
1404;SDS011;697;51.114;6.542;2024-03-08T04:05:11;27.40;;;19.97;;
1404;SDS011;697;51.114;6.542;2024-03-08T04:07:39;24.30;;;19.50;;
1404;SDS011;697;51.114;6.542;2024-03-08T04:10:07;27.27;;;20.13;;
1404;SDS011;697;51.114;6.542;2024-03-08T04:12:36;28.07;;;19.47;;
1404;SDS011;697;51.114;6.542;2024-03-08T04:15:03;27.27;;;19.73;;
1404;SDS011;697;51.114;6.542;2024-03-08T04:17:32;26.37;;;19.07;;
1404;SDS011;697;51.114;6.542;2024-03-08T04:20:00;24.40;;;19.00;;
1404;SDS011;697;51.114;6.542;2024-03-08T04:22:34;30.97;;;20.53;;
1404;SDS011;697;51.114;6.542;2024-03-08T04:25:01;25.27;;;19.33;;
1404;SDS011;697;51.114;6.542;2024-03-08T04:27:28;25.70;;;19.33;;
1404;SDS011;697;51.114;6.542;2024-03-08T04:29:55;24.77;;;18.67;;
1404;SDS011;697;51.114;6.542;2024-03-08T04:32:22;25.23;;;18.80;;
1404;SDS011;697;51.114;6.542;2024-03-08T04:34:48;24.97;;;19.03;;
1404;SDS011;697;51.114;6.542;2024-03-08T04:37:15;25.87;;;18.97;;
1404;SDS011;697;51.114;6.542;2024-03-08T04:39:44;26.57;;;18.97;;
1404;SDS011;697;51.114;6.542;2024-03-08T04:42:12;25.37;;;17.80;;
1404;SDS011;697;51.114;6.542;2024-03-08T04:44:39;25.70;;;19.60;;
1404;SDS011;697;51.114;6.542;2024-03-08T04:47:06;25.50;;;19.27;;
1404;SDS011;697;51.114;6.542;2024-03-08T04:49:33;23.13;;;18.37;;
1404;SDS011;697;51.114;6.542;2024-03-08T04:52:00;26.37;;;19.63;;
1404;SDS011;697;51.114;6.542;2024-03-08T04:54:28;28.00;;;18.93;;
1404;SDS011;697;51.114;6.542;2024-03-08T04:56:56;27.40;;;18.60;;
1404;SDS011;697;51.114;6.542;2024-03-08T04:59:25;28.80;;;19.53;;
1404;SDS011;697;51.114;6.542;2024-03-08T05:01:51;24.23;;;18.20;;
1404;SDS011;697;51.114;6.542;2024-03-08T05:04:18;25.97;;;19.80;;
1404;SDS011;697;51.114;6.542;2024-03-08T05:06:45;28.70;;;19.37;;
1404;SDS011;697;51.114;6.542;2024-03-08T05:09:12;27.30;;;20.00;;
1404;SDS011;697;51.114;6.542;2024-03-08T05:11:40;27.47;;;20.10;;
1404;SDS011;697;51.114;6.542;2024-03-08T05:14:09;35.23;;;19.20;;
1404;SDS011;697;51.114;6.542;2024-03-08T05:16:36;28.23;;;21.00;;
1404;SDS011;697;51.114;6.542;2024-03-08T05:19:02;28.83;;;18.80;;
1404;SDS011;697;51.114;6.542;2024-03-08T05:21:29;27.73;;;20.87;;
1404;SDS011;697;51.114;6.542;2024-03-08T05:23:56;23.27;;;19.77;;
1404;SDS011;697;51.114;6.542;2024-03-08T05:26:23;27.93;;;21.60;;
1404;SDS011;697;51.114;6.542;2024-03-08T05:28:50;26.93;;;18.13;;
1404;SDS011;697;51.114;6.542;2024-03-08T05:31:21;32.00;;;21.50;;
1404;SDS011;697;51.114;6.542;2024-03-08T05:33:48;26.60;;;19.40;;
1404;SDS011;697;51.114;6.542;2024-03-08T05:36:15;27.20;;;19.13;;
1404;SDS011;697;51.114;6.542;2024-03-08T05:38:42;25.77;;;19.30;;
1404;SDS011;697;51.114;6.542;2024-03-08T05:41:09;26.17;;;19.40;;
1404;SDS011;697;51.114;6.542;2024-03-08T05:43:36;26.60;;;19.27;;
1404;SDS011;697;51.114;6.542;2024-03-08T05:46:03;27.10;;;18.43;;
1404;SDS011;697;51.114;6.542;2024-03-08T05:48:32;24.90;;;19.00;;
1404;SDS011;697;51.114;6.542;2024-03-08T05:50:59;31.43;;;20.70;;
1404;SDS011;697;51.114;6.542;2024-03-08T05:53:26;25.40;;;18.57;;
1404;SDS011;697;51.114;6.542;2024-03-08T05:55:56;29.43;;;20.13;;
1404;SDS011;697;51.114;6.542;2024-03-08T05:58:23;23.40;;;19.03;;
1404;SDS011;697;51.114;6.542;2024-03-08T06:00:50;29.23;;;18.83;;
1404;SDS011;697;51.114;6.542;2024-03-08T06:03:17;31.00;;;20.50;;
1404;SDS011;697;51.114;6.542;2024-03-08T06:05:47;31.07;;;20.37;;
1404;SDS011;697;51.114;6.542;2024-03-08T06:08:15;29.60;;;21.50;;
1404;SDS011;697;51.114;6.542;2024-03-08T06:10:42;29.70;;;20.00;;
1404;SDS011;697;51.114;6.542;2024-03-08T06:13:08;28.70;;;20.10;;
1404;SDS011;697;51.114;6.542;2024-03-08T06:15:37;30.60;;;21.10;;
1404;SDS011;697;51.114;6.542;2024-03-08T06:18:04;31.87;;;21.53;;
1404;SDS011;697;51.114;6.542;2024-03-08T06:20:33;31.33;;;20.93;;
1404;SDS011;697;51.114;6.542;2024-03-08T06:23:01;25.57;;;19.57;;
1404;SDS011;697;51.114;6.542;2024-03-08T06:25:28;24.53;;;20.07;;
1404;SDS011;697;51.114;6.542;2024-03-08T06:27:54;26.80;;;20.27;;
1404;SDS011;697;51.114;6.542;2024-03-08T06:30:21;28.00;;;20.10;;
1404;SDS011;697;51.114;6.542;2024-03-08T06:32:48;26.53;;;20.00;;
1404;SDS011;697;51.114;6.542;2024-03-08T06:35:15;31.30;;;21.20;;
1404;SDS011;697;51.114;6.542;2024-03-08T06:37:42;26.40;;;19.67;;
1404;SDS011;697;51.114;6.542;2024-03-08T06:40:11;28.40;;;19.83;;
1404;SDS011;697;51.114;6.542;2024-03-08T06:42:39;26.90;;;19.77;;
1404;SDS011;697;51.114;6.542;2024-03-08T06:45:06;28.87;;;20.87;;
1404;SDS011;697;51.114;6.542;2024-03-08T06:47:35;26.07;;;19.30;;
1404;SDS011;697;51.114;6.542;2024-03-08T06:50:02;30.00;;;20.30;;
1404;SDS011;697;51.114;6.542;2024-03-08T06:52:30;25.93;;;19.20;;
1404;SDS011;697;51.114;6.542;2024-03-08T06:54:58;30.80;;;20.60;;
1404;SDS011;697;51.114;6.542;2024-03-08T06:57:28;27.90;;;20.90;;
1404;SDS011;697;51.114;6.542;2024-03-08T06:59:54;28.50;;;19.23;;
1404;SDS011;697;51.114;6.542;2024-03-08T07:02:22;31.30;;;20.77;;
1404;SDS011;697;51.114;6.542;2024-03-08T07:04:50;26.60;;;21.00;;
1404;SDS011;697;51.114;6.542;2024-03-08T07:07:18;29.60;;;21.07;;
1404;SDS011;697;51.114;6.542;2024-03-08T07:09:45;28.80;;;21.13;;
1404;SDS011;697;51.114;6.542;2024-03-08T07:12:14;27.80;;;20.70;;
1404;SDS011;697;51.114;6.542;2024-03-08T07:14:43;29.33;;;19.80;;
1404;SDS011;697;51.114;6.542;2024-03-08T07:17:10;28.33;;;19.83;;
1404;SDS011;697;51.114;6.542;2024-03-08T07:19:37;26.17;;;19.87;;
1404;SDS011;697;51.114;6.542;2024-03-08T07:22:04;32.03;;;21.37;;
1404;SDS011;697;51.114;6.542;2024-03-08T07:24:33;29.40;;;21.03;;
1404;SDS011;697;51.114;6.542;2024-03-08T07:27:15;28.27;;;20.20;;
1404;SDS011;697;51.114;6.542;2024-03-08T07:29:43;33.30;;;21.40;;
1404;SDS011;697;51.114;6.542;2024-03-08T07:32:11;31.53;;;21.23;;
1404;SDS011;697;51.114;6.542;2024-03-08T07:34:46;30.80;;;21.50;;
1404;SDS011;697;51.114;6.542;2024-03-08T07:37:13;32.00;;;20.87;;
1404;SDS011;697;51.114;6.542;2024-03-08T07:39:40;30.27;;;22.40;;
1404;SDS011;697;51.114;6.542;2024-03-08T07:42:07;28.93;;;20.43;;
1404;SDS011;697;51.114;6.542;2024-03-08T07:44:33;29.70;;;20.87;;
1404;SDS011;697;51.114;6.542;2024-03-08T07:47:02;31.73;;;20.77;;
1404;SDS011;697;51.114;6.542;2024-03-08T07:49:30;27.80;;;20.40;;
1404;SDS011;697;51.114;6.542;2024-03-08T07:51:56;27.47;;;19.90;;
1404;SDS011;697;51.114;6.542;2024-03-08T07:54:24;29.83;;;21.03;;
1404;SDS011;697;51.114;6.542;2024-03-08T07:56:52;24.43;;;19.67;;
1404;SDS011;697;51.114;6.542;2024-03-08T07:59:18;26.90;;;20.53;;
1404;SDS011;697;51.114;6.542;2024-03-08T08:01:46;29.27;;;19.70;;
1404;SDS011;697;51.114;6.542;2024-03-08T08:04:14;31.73;;;20.33;;
1404;SDS011;697;51.114;6.542;2024-03-08T08:06:43;32.10;;;21.27;;
1404;SDS011;697;51.114;6.542;2024-03-08T08:09:09;29.13;;;20.00;;
1404;SDS011;697;51.114;6.542;2024-03-08T08:11:39;28.60;;;20.03;;
1404;SDS011;697;51.114;6.542;2024-03-08T08:14:08;31.07;;;21.47;;
1404;SDS011;697;51.114;6.542;2024-03-08T08:16:35;25.40;;;19.57;;
1404;SDS011;697;51.114;6.542;2024-03-08T08:19:02;28.43;;;21.13;;
1404;SDS011;697;51.114;6.542;2024-03-08T08:21:33;27.30;;;19.90;;
1404;SDS011;697;51.114;6.542;2024-03-08T08:24:01;27.07;;;19.90;;
1404;SDS011;697;51.114;6.542;2024-03-08T08:26:28;28.37;;;19.50;;
1404;SDS011;697;51.114;6.542;2024-03-08T08:28:55;25.90;;;19.43;;
1404;SDS011;697;51.114;6.542;2024-03-08T08:31:22;27.90;;;20.53;;
1404;SDS011;697;51.114;6.542;2024-03-08T08:33:49;26.80;;;20.40;;
1404;SDS011;697;51.114;6.542;2024-03-08T08:36:19;22.80;;;18.40;;
1404;SDS011;697;51.114;6.542;2024-03-08T08:38:47;26.07;;;19.33;;
1404;SDS011;697;51.114;6.542;2024-03-08T08:41:13;25.50;;;19.67;;
1404;SDS011;697;51.114;6.542;2024-03-08T08:43:42;31.00;;;20.33;;
1404;SDS011;697;51.114;6.542;2024-03-08T08:46:09;24.80;;;18.57;;
1404;SDS011;697;51.114;6.542;2024-03-08T08:48:38;26.50;;;18.63;;
1404;SDS011;697;51.114;6.542;2024-03-08T08:51:06;25.70;;;17.90;;
1404;SDS011;697;51.114;6.542;2024-03-08T08:53:37;22.00;;;18.47;;
1404;SDS011;697;51.114;6.542;2024-03-08T08:56:07;24.60;;;18.10;;
1404;SDS011;697;51.114;6.542;2024-03-08T08:58:34;24.70;;;19.90;;
1404;SDS011;697;51.114;6.542;2024-03-08T09:01:00;26.63;;;20.47;;
1404;SDS011;697;51.114;6.542;2024-03-08T09:03:27;23.43;;;18.60;;
1404;SDS011;697;51.114;6.542;2024-03-08T09:05:55;24.97;;;18.37;;
1404;SDS011;697;51.114;6.542;2024-03-08T09:08:22;26.43;;;17.90;;
1404;SDS011;697;51.114;6.542;2024-03-08T09:10:49;26.70;;;19.27;;
1404;SDS011;697;51.114;6.542;2024-03-08T09:13:18;25.17;;;19.17;;
1404;SDS011;697;51.114;6.542;2024-03-08T09:15:44;24.90;;;19.33;;
1404;SDS011;697;51.114;6.542;2024-03-08T09:18:11;26.53;;;18.90;;
1404;SDS011;697;51.114;6.542;2024-03-08T09:20:38;25.87;;;18.97;;
1404;SDS011;697;51.114;6.542;2024-03-08T09:23:06;19.20;;;15.73;;
1404;SDS011;697;51.114;6.542;2024-03-08T09:25:33;23.57;;;17.60;;
1404;SDS011;697;51.114;6.542;2024-03-08T09:28:00;28.13;;;17.37;;
1404;SDS011;697;51.114;6.542;2024-03-08T09:30:28;24.37;;;18.03;;
1404;SDS011;697;51.114;6.542;2024-03-08T09:32:55;26.20;;;18.60;;
1404;SDS011;697;51.114;6.542;2024-03-08T09:35:22;22.30;;;17.70;;
1404;SDS011;697;51.114;6.542;2024-03-08T09:37:49;21.20;;;17.17;;
1404;SDS011;697;51.114;6.542;2024-03-08T09:40:17;21.77;;;17.47;;
1404;SDS011;697;51.114;6.542;2024-03-08T09:42:44;22.70;;;18.10;;
1404;SDS011;697;51.114;6.542;2024-03-08T09:45:12;20.40;;;16.80;;
1404;SDS011;697;51.114;6.542;2024-03-08T09:47:41;22.80;;;16.80;;
1404;SDS011;697;51.114;6.542;2024-03-08T09:50:09;20.93;;;16.43;;
1404;SDS011;697;51.114;6.542;2024-03-08T09:52:37;21.57;;;16.10;;
1404;SDS011;697;51.114;6.542;2024-03-08T09:55:05;23.50;;;15.93;;
1404;SDS011;697;51.114;6.542;2024-03-08T09:57:32;20.07;;;16.87;;
1404;SDS011;697;51.114;6.542;2024-03-08T10:00:01;24.03;;;17.07;;
1404;SDS011;697;51.114;6.542;2024-03-08T10:02:33;18.50;;;15.90;;
1404;SDS011;697;51.114;6.542;2024-03-08T10:05:02;20.67;;;16.37;;
1404;SDS011;697;51.114;6.542;2024-03-08T10:07:29;17.97;;;15.80;;
1404;SDS011;697;51.114;6.542;2024-03-08T10:09:58;23.40;;;16.00;;
1404;SDS011;697;51.114;6.542;2024-03-08T10:12:25;17.73;;;14.93;;
1404;SDS011;697;51.114;6.542;2024-03-08T10:14:54;18.60;;;16.33;;
1404;SDS011;697;51.114;6.542;2024-03-08T10:17:21;19.53;;;14.90;;
1404;SDS011;697;51.114;6.542;2024-03-08T10:19:49;18.70;;;14.90;;
1404;SDS011;697;51.114;6.542;2024-03-08T10:22:18;17.20;;;15.23;;
1404;SDS011;697;51.114;6.542;2024-03-08T10:24:45;18.20;;;15.10;;
1404;SDS011;697;51.114;6.542;2024-03-08T10:27:13;16.30;;;14.60;;
1404;SDS011;697;51.114;6.542;2024-03-08T10:29:38;17.03;;;14.93;;
1404;SDS011;697;51.114;6.542;2024-03-08T10:32:09;17.83;;;15.20;;
1404;SDS011;697;51.114;6.542;2024-03-08T10:34:37;22.63;;;16.00;;
1404;SDS011;697;51.114;6.542;2024-03-08T10:37:04;17.20;;;15.40;;
1404;SDS011;697;51.114;6.542;2024-03-08T10:39:35;15.53;;;12.87;;
1404;SDS011;697;51.114;6.542;2024-03-08T10:42:03;15.63;;;14.13;;
1404;SDS011;697;51.114;6.542;2024-03-08T10:44:40;24.33;;;15.30;;
1404;SDS011;697;51.114;6.542;2024-03-08T10:47:17;21.93;;;14.13;;
1404;SDS011;697;51.114;6.542;2024-03-08T10:49:50;14.80;;;13.30;;
1404;SDS011;697;51.114;6.542;2024-03-08T10:52:18;15.40;;;12.90;;
1404;SDS011;697;51.114;6.542;2024-03-08T10:54:47;17.83;;;14.90;;
1404;SDS011;697;51.114;6.542;2024-03-08T10:57:15;15.30;;;13.67;;
1404;SDS011;697;51.114;6.542;2024-03-08T10:59:45;15.40;;;13.80;;
1404;SDS011;697;51.114;6.542;2024-03-08T11:02:14;16.90;;;14.03;;
1404;SDS011;697;51.114;6.542;2024-03-08T11:04:47;13.87;;;12.40;;
1404;SDS011;697;51.114;6.542;2024-03-08T11:07:14;16.03;;;14.37;;
1404;SDS011;697;51.114;6.542;2024-03-08T11:09:44;36.30;;;32.60;;
1404;SDS011;697;51.114;6.542;2024-03-08T11:12:18;18.07;;;14.10;;
1404;SDS011;697;51.114;6.542;2024-03-08T11:14:50;16.13;;;12.70;;
1404;SDS011;697;51.114;6.542;2024-03-08T11:17:20;13.97;;;12.47;;
1404;SDS011;697;51.114;6.542;2024-03-08T11:19:48;12.70;;;11.40;;
1404;SDS011;697;51.114;6.542;2024-03-08T11:22:20;12.40;;;11.03;;
1404;SDS011;697;51.114;6.542;2024-03-08T11:24:51;11.47;;;10.37;;
1404;SDS011;697;51.114;6.542;2024-03-08T11:27:18;12.77;;;11.50;;
1404;SDS011;697;51.114;6.542;2024-03-08T11:29:50;11.30;;;10.20;;
1404;SDS011;697;51.114;6.542;2024-03-08T11:32:33;10.80;;;9.50;;
1404;SDS011;697;51.114;6.542;2024-03-08T11:35:03;12.30;;;10.67;;
1404;SDS011;697;51.114;6.542;2024-03-08T11:37:33;11.87;;;9.47;;
1404;SDS011;697;51.114;6.542;2024-03-08T11:40:02;11.00;;;10.00;;
1404;SDS011;697;51.114;6.542;2024-03-08T11:42:43;10.57;;;9.57;;
1404;SDS011;697;51.114;6.542;2024-03-08T11:45:11;12.77;;;9.87;;
1404;SDS011;697;51.114;6.542;2024-03-08T11:47:38;11.17;;;10.00;;
1404;SDS011;697;51.114;6.542;2024-03-08T11:50:09;10.20;;;9.30;;
1404;SDS011;697;51.114;6.542;2024-03-08T11:52:37;14.20;;;9.40;;
1404;SDS011;697;51.114;6.542;2024-03-08T11:55:05;11.40;;;9.77;;
1404;SDS011;697;51.114;6.542;2024-03-08T11:57:33;10.47;;;9.47;;
1404;SDS011;697;51.114;6.542;2024-03-08T12:00:00;10.93;;;10.00;;
1404;SDS011;697;51.114;6.542;2024-03-08T12:02:31;10.47;;;9.47;;
1404;SDS011;697;51.114;6.542;2024-03-08T12:05:01;10.47;;;9.47;;
1404;SDS011;697;51.114;6.542;2024-03-08T12:07:28;12.07;;;10.23;;
1404;SDS011;697;51.114;6.542;2024-03-08T12:10:18;72.43;;;64.40;;
1404;SDS011;697;51.114;6.542;2024-03-08T12:12:46;11.00;;;10.00;;
1404;SDS011;697;51.114;6.542;2024-03-08T12:15:16;11.70;;;10.60;;
1404;SDS011;697;51.114;6.542;2024-03-08T12:17:43;11.80;;;10.70;;
1404;SDS011;697;51.114;6.542;2024-03-08T12:20:14;11.53;;;10.43;;
1404;SDS011;697;51.114;6.542;2024-03-08T12:22:42;12.77;;;10.37;;
1404;SDS011;697;51.114;6.542;2024-03-08T12:25:10;12.00;;;10.67;;
1404;SDS011;697;51.114;6.542;2024-03-08T12:27:39;11.83;;;10.73;;
1404;SDS011;697;51.114;6.542;2024-03-08T12:30:17;10.50;;;9.50;;
1404;SDS011;697;51.114;6.542;2024-03-08T12:32:47;13.10;;;12.00;;
1404;SDS011;697;51.114;6.542;2024-03-08T12:35:15;11.00;;;10.03;;
1404;SDS011;697;51.114;6.542;2024-03-08T12:37:42;11.97;;;10.77;;
1404;SDS011;697;51.114;6.542;2024-03-08T12:40:09;11.60;;;10.57;;
1404;SDS011;697;51.114;6.542;2024-03-08T12:42:43;12.10;;;10.77;;
1404;SDS011;697;51.114;6.542;2024-03-08T12:45:12;13.47;;;12.17;;
1404;SDS011;697;51.114;6.542;2024-03-08T12:47:39;12.33;;;11.03;;
1404;SDS011;697;51.114;6.542;2024-03-08T12:50:07;11.97;;;10.77;;
1404;SDS011;697;51.114;6.542;2024-03-08T12:52:35;13.10;;;11.80;;
1404;SDS011;697;51.114;6.542;2024-03-08T12:55:02;11.20;;;10.07;;
1404;SDS011;697;51.114;6.542;2024-03-08T12:57:31;13.20;;;11.90;;
1404;SDS011;697;51.114;6.542;2024-03-08T13:00:01;11.87;;;10.73;;
1404;SDS011;697;51.114;6.542;2024-03-08T13:02:29;11.17;;;10.07;;
1404;SDS011;697;51.114;6.542;2024-03-08T13:04:57;11.63;;;10.53;;
1404;SDS011;697;51.114;6.542;2024-03-08T13:07:24;11.83;;;10.73;;
1404;SDS011;697;51.114;6.542;2024-03-08T13:09:51;12.13;;;10.97;;
1404;SDS011;697;51.114;6.542;2024-03-08T13:12:19;11.30;;;10.30;;
1404;SDS011;697;51.114;6.542;2024-03-08T13:14:46;12.20;;;11.10;;
1404;SDS011;697;51.114;6.542;2024-03-08T13:17:15;10.87;;;9.83;;
1404;SDS011;697;51.114;6.542;2024-03-08T13:19:43;10.40;;;9.50;;
1404;SDS011;697;51.114;6.542;2024-03-08T13:22:10;11.27;;;10.07;;
1404;SDS011;697;51.114;6.542;2024-03-08T13:24:38;11.77;;;10.27;;
1404;SDS011;697;51.114;6.542;2024-03-08T13:27:06;10.90;;;9.90;;
1404;SDS011;697;51.114;6.542;2024-03-08T13:29:44;11.17;;;10.03;;
1404;SDS011;697;51.114;6.542;2024-03-08T13:32:12;11.80;;;10.30;;
1404;SDS011;697;51.114;6.542;2024-03-08T13:34:41;12.40;;;11.23;;
1404;SDS011;697;51.114;6.542;2024-03-08T13:37:08;11.13;;;10.17;;
1404;SDS011;697;51.114;6.542;2024-03-08T13:39:36;12.90;;;11.30;;
1404;SDS011;697;51.114;6.542;2024-03-08T13:42:08;10.73;;;9.83;;
1404;SDS011;697;51.114;6.542;2024-03-08T13:44:38;12.20;;;11.20;;
1404;SDS011;697;51.114;6.542;2024-03-08T13:47:06;14.33;;;10.57;;
1404;SDS011;697;51.114;6.542;2024-03-08T13:49:34;10.90;;;10.00;;
1404;SDS011;697;51.114;6.542;2024-03-08T13:52:01;10.77;;;9.77;;
1404;SDS011;697;51.114;6.542;2024-03-08T13:54:29;11.33;;;10.37;;
1404;SDS011;697;51.114;6.542;2024-03-08T13:56:56;11.07;;;10.20;;
1404;SDS011;697;51.114;6.542;2024-03-08T13:59:23;11.30;;;10.40;;
1404;SDS011;697;51.114;6.542;2024-03-08T14:01:54;11.40;;;10.20;;
1404;SDS011;697;51.114;6.542;2024-03-08T14:04:22;11.27;;;10.37;;
1404;SDS011;697;51.114;6.542;2024-03-08T14:06:51;11.70;;;10.80;;
1404;SDS011;697;51.114;6.542;2024-03-08T14:09:21;10.80;;;9.90;;
1404;SDS011;697;51.114;6.542;2024-03-08T14:11:49;12.13;;;11.03;;
1404;SDS011;697;51.114;6.542;2024-03-08T14:14:18;10.30;;;9.40;;
1404;SDS011;697;51.114;6.542;2024-03-08T14:16:46;11.10;;;10.20;;
1404;SDS011;697;51.114;6.542;2024-03-08T14:19:13;11.47;;;10.57;;
1404;SDS011;697;51.114;6.542;2024-03-08T14:21:40;13.13;;;11.67;;
1404;SDS011;697;51.114;6.542;2024-03-08T14:24:08;10.73;;;9.93;;
1404;SDS011;697;51.114;6.542;2024-03-08T14:26:35;11.47;;;10.47;;
1404;SDS011;697;51.114;6.542;2024-03-08T14:29:03;11.03;;;10.13;;
1404;SDS011;697;51.114;6.542;2024-03-08T14:31:30;11.90;;;10.80;;
1404;SDS011;697;51.114;6.542;2024-03-08T14:33:57;11.40;;;10.40;;
1404;SDS011;697;51.114;6.542;2024-03-08T14:36:24;10.93;;;9.90;;
1404;SDS011;697;51.114;6.542;2024-03-08T14:38:51;11.77;;;10.50;;
1404;SDS011;697;51.114;6.542;2024-03-08T14:41:20;11.10;;;10.00;;
1404;SDS011;697;51.114;6.542;2024-03-08T14:43:47;10.50;;;9.60;;
1404;SDS011;697;51.114;6.542;2024-03-08T14:46:14;10.97;;;9.97;;
1404;SDS011;697;51.114;6.542;2024-03-08T14:48:42;10.73;;;9.77;;
1404;SDS011;697;51.114;6.542;2024-03-08T14:51:09;11.13;;;10.23;;
1404;SDS011;697;51.114;6.542;2024-03-08T14:53:39;9.87;;;9.07;;
1404;SDS011;697;51.114;6.542;2024-03-08T14:56:06;10.30;;;9.50;;
1404;SDS011;697;51.114;6.542;2024-03-08T14:58:35;10.13;;;9.23;;
1404;SDS011;697;51.114;6.542;2024-03-08T15:01:03;10.60;;;9.70;;
1404;SDS011;697;51.114;6.542;2024-03-08T15:03:32;10.50;;;9.63;;
1404;SDS011;697;51.114;6.542;2024-03-08T15:06:02;10.90;;;9.97;;
1404;SDS011;697;51.114;6.542;2024-03-08T15:08:33;10.67;;;9.77;;